Tiempo atmosférico en la estación meteorológica de Bailo, Huesca (722 m.)



Fecha
DESCASC
Temp. máxima en grados centígrados (hora)
DESCASC
Temp. mínima en grados centígrados (hora)
DESCASC
Temp. media en grados centígrados
DESCASC
Racha de viento máxima en m/sg (hora)
DESCASC
Velocidad máxima media en intervalos de 10 minutos(hora)
DESCASC
Precipitaciones diarias en mm
DESCASC
Precipitaciones de 00:00 a 06:00 en mm
DESCASC
Precipitaciones de 06:00 a 12:00 en mm
DESCASC
Precipitaciones de 12:00 a 18:00 en mm
DESCASC
Precipitaciones de 18:00 a 24:00 en mm
DESCASC
29-10-2020 17 (15:30) 5 (07:20) 11 3.89 (15:30) 2.5 (18:20) 0 0 0 0 0
28-10-2020 15.8 (15:40) 7.1 (05:20) 11.5 5.28 (15:50) 3.06 (15:50) 0 0 0 0 0
27-10-2020 12.5 (13:40) 3.8 (00:00) 8.1 5.56 (13:50) 3.61 (14:40) 0 0 0 0 0
26-10-2020 9 (14:50) 5.7 (00:00) 7.3 11.67 (14:20) 7.22 (14:10) 1 0 1 0 0
25-10-2020 13.7 (11:30) 7.9 (00:00) 10.8 13.06 (12:00) 8.89 (13:00) 7.6 0 0 0.4 7.2
24-10-2020 16.9 (16:00) 3.5 (00:00) 10.2 5.56 (17:50) 3.61 (17:20) 0 0 0 0 0
23-10-2020 14.2 (14:40) 7.7 (00:00) 10.9 9.17 (03:10) 6.39 (03:10) 3 1.8 1.2 0 0
22-10-2020 18.1 (14:50) 12.8 (00:00) 15.5 16.67 (20:20) 12.5 (20:20) 9.2 0 0 0 9.2
21-10-2020 19 (13:40) 13.8 (00:00) 16.4 21.11 (02:30) 12.78 (02:20) 2.4 1.2 0 1.2 0
20-10-2020 15.6 (23:50) 12.7 (00:00) 14.2 18.33 (23:50) 11.94 (23:00) 13.4 0 3.8 9.4 0.2
19-10-2020 19.2 (15:00) 7.7 (00:00) 13.5 12.78 (22:30) 9.17 (23:00) 0 0 0 0 0
18-10-2020 18 (16:40) 1.9 (00:00) 9.9 3.89 (23:40) 2.78 (19:20) 0 0 0 0 0
17-10-2020 16 (16:40) 0.7 (00:00) 8.3 7.78 (17:40) 5.83 (17:40) 0 0 0 0 0
16-10-2020 14.8 (16:30) 3.1 (00:00) 9 7.78 (18:00) 5.56 (18:10) 0 0 0 0 0
15-10-2020 11.6 (15:40) 5.1 (00:00) 8.4 14.72 (16:10) 10.28 (17:00) 0 0 0 0 0
14-10-2020 9.8 (16:30) 5.7 (00:00) 7.8 12.22 (14:00) 8.33 (14:00) 3.6 0 1.2 2.4 0
13-10-2020 14.4 (16:00) 7.1 (00:00) 10.7 14.44 (11:50) 9.72 (12:10) 1.8 1.6 0.2 0 0
12-10-2020 13.7 (15:20) 7.8 (00:00) 10.8 16.11 (16:00) 11.11 (16:30) 0 0 0 0 0
11-10-2020 12.3 (14:00) 7.1 (00:00) 9.7 16.94 (15:00) 12.5 (15:10) 0 0 0 0 0
10-10-2020 17.1 (12:10) 8.5 (00:00) 12.8 15.28 (17:50) 11.39 (18:10) 0 0 0 0 0
09-10-2020 24 (16:40) 10.4 (00:00) 17.2 5.56 (16:50) 3.89 (16:50) 0 0 0 0 0
08-10-2020 23.8 (16:00) 8.3 (00:00) 16 6.39 (12:50) 3.89 (12:50) 0 0 0 0 0
07-10-2020 19.1 (14:30) 12.6 (00:00) 15.9 14.44 (12:20) 10.28 (12:20) 0 0 0 0 0
06-10-2020 19.1 (17:10) 6.3 (00:00) 12.7 8.61 (20:00) 5 (20:00) 0 0 0 0 0
05-10-2020 14.3 (17:20) 6.4 (00:00) 10.4 6.39 (17:20) 4.44 (16:10) 0 0 0 0 0
04-10-2020 11.3 (18:30) 7 (00:00) 9.2 10.28 (18:00) 5.83 (07:00) 6.8 0 3.8 3 0
03-10-2020 9.5 (18:00) 5.5 (00:00) 7.5 12.78 (11:00) 8.61 (11:00) 8 1.2 3 3.4 0.4
02-10-2020 15.4 (00:40) 4.5 (00:00) 9.9 16.94 (16:20) 10 (18:10) 19.4 3 14.4 2 0
01-10-2020 18.4 (14:20) 9.5 (00:00) 13.9 8.61 (12:40) 5.56 (13:00) 0 0 0 0 0
30-09-2020 24.4 (16:50) 7.2 (00:00) 15.8 4.72 (15:50) 3.06 (19:50) 0 0 0 0 0

Gráficas

Temp. máximas Temp. mínimas Temp. medias Precipitaciones Rachas de viento máximas Velocidades máximas media en intervalos de 10 minutos

Datos horarios

Fecha y hora oficial Temperatura (ºC) Velocidad del viento (km/h) Dirección del viento Racha (km/h) Dirección de racha Precipitación (mm) Presión (hPa) Tendencia (hPa) Humedad (%)
2020-10-29 23:00:00 9.2 0 Calma 6 Oeste 0 -- -- 90
2020-10-29 22:00:00 9.7 0 Calma 4 Oeste 0 -- -- 87
2020-10-29 21:00:00 10.2 0 Calma 4 Noroeste 0 -- -- 85
2020-10-29 20:00:00 11.6 3 Nordeste 6 Oeste 0 -- -- 80
2020-10-29 19:00:00 12 6 Sudoeste 10 Sudoeste 0 -- -- 78
2020-10-29 18:00:00 13.1 8 Sudoeste 10 Sudoeste 0 -- -- 75
2020-10-29 17:00:00 16.4 4 Sudoeste 8 Sudoeste 0 -- -- 67
2020-10-29 16:00:00 17 3 Nordeste 14 Noroeste 0 -- -- 60
2020-10-29 15:00:00 16.6 4 Nordeste 9 Norte 0 -- -- 61
2020-10-29 14:00:00 16 6 Norte 12 Norte 0 -- -- 64
2020-10-29 13:00:00 15.1 3 Noroeste 10 Nordeste 0 -- -- 67
2020-10-29 12:00:00 13.3 5 Noroeste 11 Noroeste 0 -- -- 75
2020-10-29 11:00:00 11.9 3 Este 7 Este 0 -- -- 83
2020-10-29 10:00:00 9.5 4 Este 8 Nordeste 0 -- -- 92
2020-10-29 09:00:00 6.6 0 Calma 6 Oeste 0 -- -- 98
2020-10-29 08:00:00 5.8 2 Este 8 Sur 0 -- -- 97
2020-10-29 07:00:00 5.9 4 Sudeste 6 Sudoeste 0 -- -- 96
2020-10-29 06:00:00 5.6 3 Sudeste 5 Sudeste 0 -- -- 96
2020-10-29 05:00:00 6.1 4 Noroeste 6 Noroeste 0 -- -- 96
2020-10-29 04:00:00 6.8 3 Sur 5 Oeste 0 -- -- 94
2020-10-29 03:00:00 7.2 3 Noroeste 5 Noroeste 0 -- -- 91
2020-10-29 02:00:00 7.8 0 Calma 3 Oeste 0 -- -- 92
2020-10-29 01:00:00 8.6 3 Oeste 5 Sudoeste 0 -- -- 90
2020-10-29 00:00:00 9 0 Calma 4 Sudoeste 0 -- -- 91
2020-10-28 23:00:00 9.4 3 Norte 6 Sudoeste 0 -- -- 87
2020-10-28 22:00:00 9.5 4 Oeste 6 Sudoeste 0 -- -- 89
2020-10-28 21:00:00 10.6 3 Sur 5 Sudeste 0 -- -- 84
2020-10-28 20:00:00 10.8 3 Sudeste 12 Noroeste 0 -- -- 84
2020-10-28 19:00:00 11.4 8 Oeste 12 Oeste 0 -- -- 82
2020-10-28 18:00:00 12.5 5 Oeste 12 Norte 0 -- -- 78
2020-10-28 17:00:00 15.1 8 Norte 15 Norte 0 -- -- 68
2020-10-28 16:00:00 15.2 10 Nordeste 19 Norte 0 -- -- 69
2020-10-28 15:00:00 15.4 8 Norte 15 Norte 0 -- -- 72
2020-10-28 14:00:00 14.7 3 Norte 10 Norte 0 -- -- 74
2020-10-28 13:00:00 14.3 2 Norte 11 Norte 0 -- -- 75
2020-10-28 12:00:00 13.1 6 Noroeste 10 Norte 0 -- -- 85
2020-10-28 11:00:00 12.2 2 Oeste 8 Sur 0 -- -- 88
2020-10-28 10:00:00 9.7 2 Nordeste 5 Norte 0 -- -- 92
2020-10-28 09:00:00 8.6 0 Calma 8 Sur 0 -- -- 94
2020-10-28 08:00:00 7.8 4 Sudeste 8 Sudeste 0 -- -- 94
2020-10-28 07:00:00 7.3 0 Calma 5 Oeste 0 -- -- 94
2020-10-28 06:00:00 7.4 3 Sur 5 Sur 0 -- -- 93
2020-10-28 05:00:00 7.3 0 Calma 4 Noroeste 0 -- -- 92
2020-10-28 04:00:00 7.6 0 Calma 6 Sudeste 0 -- -- 92
2020-10-28 03:00:00 7.7 3 Noroeste 5 Noroeste 0 -- -- 92
2020-10-28 02:00:00 8.4 3 Oeste 6 Sur 0 -- -- 91
2020-10-28 01:00:00 8.3 2 Sur 6 Nordeste 0 -- -- 92
2020-10-28 00:00:00 8.9 4 Sudoeste 8 Sudoeste 0 -- -- 89
2020-10-27 23:00:00 9 3 Este 5 Nordeste 0 -- -- 87
2020-10-27 22:00:00 9.2 4 Sudoeste 8 Sudoeste 0 -- -- 84
2020-10-27 21:00:00 8.7 3 Sudoeste 6 Sudoeste 0 -- -- 84
2020-10-27 20:00:00 9.2 2 Oeste 6 Sudoeste 0 -- -- 80
2020-10-27 19:00:00 9.5 2 Sudoeste 9 Nordeste 0 -- -- 80
2020-10-27 18:00:00 10.5 6 Nordeste 9 Nordeste 0 -- -- 75
2020-10-27 17:00:00 11.1 6 Norte 16 Norte 0 -- -- 72
2020-10-27 16:00:00 12.2 9 Noroeste 17 Oeste 0 -- -- 63
2020-10-27 15:00:00 12.1 6 Norte 20 Noroeste 0 -- -- 64
2020-10-27 14:00:00 12.4 10 Nordeste 20 Nordeste 0 -- -- 64
2020-10-27 13:00:00 11.4 6 Norte 19 Norte 0 -- -- 68
2020-10-27 12:00:00 11.1 8 Norte 14 Nordeste 0 -- -- 70
2020-10-27 11:00:00 9.1 2 Noroeste 5 Este 0 -- -- 75
2020-10-27 10:00:00 7.6 3 Sudeste 6 Este 0 -- -- 87
2020-10-27 09:00:00 5.6 3 Sudoeste 6 Sudoeste 0 -- -- 94
2020-10-27 08:00:00 4.8 4 Sur 5 Sur 0 -- -- 93
2020-10-27 07:00:00 4.4 2 Sudeste 4 Sur 0 -- -- 93
2020-10-27 06:00:00 4.2 4 Sudoeste 8 Sudoeste 0 -- -- 94
2020-10-27 05:00:00 4 4 Sudoeste 6 Sudoeste 0 -- -- 93
2020-10-27 04:00:00 4.8 2 Oeste 4 Sudoeste 0 -- -- 89
2020-10-27 03:00:00 4.9 0 Calma 5 Sudeste 0 -- -- 90
2020-10-27 02:00:00 5.4 3 Oeste 4 Oeste 0 -- -- 88
2020-10-27 01:00:00 5.4 4 Oeste 8 Sudoeste 0 -- -- 86
2020-10-27 00:00:00 5.8 3 Sudoeste 9 Sudoeste 0 -- -- 85
2020-10-26 23:00:00 6.1 3 Sur 9 Norte 0 -- -- 84
2020-10-26 22:00:00 6.4 7 Norte 13 Norte 0 -- -- 83
2020-10-26 21:00:00 6.4 8 Norte 25 Nordeste 0 -- -- 84
2020-10-26 20:00:00 7.1 8 Noroeste 17 Noroeste 0 -- -- 85
2020-10-26 19:00:00 7.6 8 Norte 25 Noroeste 0 -- -- 79
2020-10-26 18:00:00 7.4 17 Noroeste 34 Noroeste 0 -- -- 75
2020-10-26 17:00:00 8.5 25 Noroeste 42 Noroeste 0 -- -- 71
2020-10-26 16:00:00 8.8 16 Noroeste 35 Noroeste 0 -- -- 80
2020-10-26 15:00:00 8.9 20 Norte 42 Noroeste 0 -- -- 75
2020-10-26 14:00:00 8.4 23 Norte 35 Norte 0 -- -- 76
2020-10-26 13:00:00 8 15 Norte 35 Noroeste 0 -- -- 84
2020-10-26 12:00:00 7.2 21 Noroeste 37 Norte 0 -- -- 82
2020-10-26 11:00:00 6.8 21 Noroeste 35 Noroeste 0 -- -- 84
2020-10-26 10:00:00 5.7 12 Norte 25 Norte 0.2 -- -- 90
2020-10-26 09:00:00 5.9 12 Norte 22 Norte 0.4 -- -- 91
2020-10-26 08:00:00 6.3 19 Norte 34 Noroeste 0.2 -- -- 85
2020-10-26 07:00:00 6.1 17 Noroeste 31 Noroeste 0.2 -- -- 85
2020-10-26 06:00:00 6.4 16 Noroeste 28 Noroeste 0 -- -- 85
2020-10-26 05:00:00 6.3 17 Noroeste 22 Noroeste 0 -- -- 86
2020-10-26 04:00:00 6 14 Noroeste 21 Noroeste 0 -- -- 87
2020-10-26 03:00:00 6.4 8 Noroeste 13 Noroeste 0 -- -- 91
2020-10-26 02:00:00 6.9 7 Noroeste 19 Noroeste 0 -- -- 91
2020-10-26 01:00:00 7.2 4 Noroeste 19 Noroeste 0 -- -- 89
2020-10-26 00:00:00 7.9 14 Norte 24 Norte 0 -- -- 90
2020-10-25 23:00:00 9.1 14 Norte 22 Norte 0 -- -- 93
2020-10-25 22:00:00 10.2 4 Este 40 Noroeste 1 -- -- 92
2020-10-25 21:00:00 10.2 20 Oeste 36 Oeste 3.8 -- -- 94
2020-10-25 20:00:00 10.6 14 Sudoeste 31 Sur 1.2 -- -- 92
2020-10-25 19:00:00 10.7 20 Sur 33 Sur 1.2 -- -- 89
2020-10-25 18:00:00 12.9 18 Sur 39 Sur 0 -- -- 71
2020-10-25 17:00:00 13 23 Sur 39 Sur 0 -- -- 69
2020-10-25 16:00:00 13.1 21 Sur 35 Sur 0 -- -- 71
2020-10-25 15:00:00 12.7 21 Sur 45 Sur 0.4 -- -- 72
2020-10-25 14:00:00 12.3 29 Sur 44 Sur 0 -- -- 74
2020-10-25 13:00:00 13 32 Sudeste 44 Sudeste 0 -- -- 70
2020-10-25 12:00:00 13.7 30 Sudeste 47 Sudeste 0 -- -- 65
2020-10-25 11:00:00 12.3 18 Sur 31 Sur 0 -- -- 67
2020-10-25 10:00:00 10.6 17 Sur 24 Sur 0 -- -- 75
2020-10-25 09:00:00 10.7 17 Sur 25 Sur 0 -- -- 72
2020-10-25 08:00:00 9.8 12 Sudoeste 17 Sudoeste 0 -- -- 76
2020-10-25 07:00:00 9.7 10 Sur 24 Sur 0 -- -- 76
2020-10-25 06:00:00 9.2 13 Sur 21 Sur 0 -- -- 78
2020-10-25 05:00:00 9 9 Sur 23 Sur 0 -- -- 79
2020-10-25 04:00:00 9.5 12 Sur 21 Sur 0 -- -- 78
2020-10-25 03:00:00 9.3 10 Sur 17 Sur 0 -- -- 77
2020-10-25 02:00:00 9.3 9 Sur 14 Sur 0 -- -- 76
2020-10-25 01:00:00 9 9 Sur 18 Sudeste 0 -- -- 79
2020-10-25 00:00:00 10.1 4 Sudoeste 14 Sur 0 -- -- 74
2020-10-24 23:00:00 10 3 Este 13 Sur 0 -- -- 75
2020-10-24 22:00:00 11.2 9 Sur 14 Sudoeste 0 -- -- 69
2020-10-24 21:00:00 11.4 7 Sur 12 Sur 0 -- -- 69
2020-10-24 20:00:00 11.8 5 Sur 17 Sudeste 0 -- -- 67
2020-10-24 19:00:00 12.7 11 Sudeste 16 Sudeste 0 -- -- 65
2020-10-24 18:00:00 14.6 12 Sudoeste 20 Sudoeste 0 -- -- 60
2020-10-24 17:00:00 16 12 Sudoeste 18 Sur 0 -- -- 54
2020-10-24 16:00:00 16.9 6 Sur 16 Sur 0 -- -- 55
2020-10-24 15:00:00 16.2 8 Sur 18 Sudeste 0 -- -- 57
2020-10-24 14:00:00 14.8 9 Sudeste 15 Este 0 -- -- 63
2020-10-24 13:00:00 12.7 3 Nordeste 6 Nordeste 0 -- -- 70
2020-10-24 12:00:00 10.3 2 Noroeste 6 Noroeste 0 -- -- 89
2020-10-24 11:00:00 7.7 0 Calma 4 Este 0 -- -- 95
2020-10-24 10:00:00 6.7 3 Nordeste 4 Este 0 -- -- 96
2020-10-24 09:00:00 3.8 0 Calma 4 Este 0 -- -- 97
2020-10-24 08:00:00 4.5 2 Oeste 6 Oeste 0 -- -- 97
2020-10-24 07:00:00 4.6 0 Calma 4 Sudeste 0 -- -- 95
2020-10-24 06:00:00 4.9 2 Este 3 Este 0 -- -- 94
2020-10-24 05:00:00 5.3 0 Calma 4 Oeste 0 -- -- 94
2020-10-24 04:00:00 5.7 2 Nordeste 5 Norte 0 -- -- 92
2020-10-24 03:00:00 6.3 0 Calma 4 Sudoeste 0 -- -- 91
2020-10-24 02:00:00 6.5 3 Oeste 5 Noroeste 0 -- -- 90
2020-10-24 01:00:00 7.4 0 Calma 6 Sudoeste 0 -- -- 86
2020-10-24 00:00:00 7.8 2 Este 6 Sudoeste 0 -- -- 83
2020-10-23 23:00:00 8.3 4 Oeste 6 Norte 0 -- -- 81
2020-10-23 22:00:00 8.6 4 Noroeste 7 Noroeste 0 -- -- 81
2020-10-23 21:00:00 10.2 2 Este 8 Noroeste 0 -- -- 73
2020-10-23 20:00:00 10.4 6 Noroeste 10 Sudoeste 0 -- -- 75
2020-10-23 19:00:00 11.3 9 Sudoeste 12 Sudoeste 0 -- -- 78
2020-10-23 18:00:00 13.6 4 Oeste 18 Nordeste 0 -- -- 71
2020-10-23 17:00:00 13.6 10 Norte 18 Norte 0 -- -- 68
2020-10-23 16:00:00 13.8 5 Este 20 Norte 0 -- -- 71
2020-10-23 15:00:00 13.9 14 Norte 22 Nordeste 0 -- -- 71
2020-10-23 14:00:00 13.5 6 Noroeste 15 Noroeste 0 -- -- 73
2020-10-23 13:00:00 12.7 9 Norte 21 Noroeste 0 -- -- 78
2020-10-23 12:00:00 12.7 12 Norte 19 Norte 0.4 -- -- 87
2020-10-23 11:00:00 12.4 5 Norte 14 Nordeste 0.2 -- -- 89
2020-10-23 10:00:00 12.4 3 Sudoeste 16 Sur 0 -- -- 89
2020-10-23 09:00:00 12.2 9 Sur 14 Noroeste 0 -- -- 90
2020-10-23 08:00:00 12.2 13 Sudoeste 26 Sur 0.4 -- -- 89
2020-10-23 07:00:00 12.9 14 Sudoeste 27 Sudoeste 0.2 -- -- 85
2020-10-23 06:00:00 13 21 Sudoeste 30 Sudoeste 0 -- -- 83
2020-10-23 05:00:00 13 16 Sudoeste 25 Sur 0 -- -- 85
2020-10-23 04:00:00 13.2 15 Sur 33 Sur 0 -- -- 87
2020-10-23 03:00:00 13.2 20 Sur 30 Sur 0.8 -- -- 89
2020-10-23 02:00:00 13.2 18 Sur 26 Sur 0 -- -- 91
2020-10-23 01:00:00 12.7 15 Sudeste 24 Sudeste 1 -- -- 92
2020-10-23 00:00:00 12.9 12 Sur 23 Sur 0.2 -- -- 91
2020-10-22 23:00:00 12.9 13 Sudoeste 22 Sudeste 2.2 -- -- 91
2020-10-22 22:00:00 13.1 17 Sudeste 22 Sudeste 0 -- -- 90
2020-10-22 21:00:00 13.2 16 Sur 60 Sudeste 1.4 -- -- 90
2020-10-22 20:00:00 13.5 19 Sur 39 Sudoeste 4.8 -- -- 88
2020-10-22 19:00:00 15.1 15 Sur 30 Sur 0.6 -- -- 82
2020-10-22 18:00:00 16.6 17 Sur 28 Sur 0 -- -- 70
2020-10-22 17:00:00 17.3 7 Sur 25 Sur 0 -- -- 69
2020-10-22 16:00:00 17.8 19 Sudeste 38 Sudeste 0 -- -- 68
2020-10-22 15:00:00 18 19 Sur 36 Sur 0 -- -- 65
2020-10-22 14:00:00 17.2 17 Sur 30 Sur 0 -- -- 72
2020-10-22 13:00:00 16.7 10 Sur 27 Sur 0 -- -- 73
2020-10-22 12:00:00 15.6 17 Sur 31 Sur 0 -- -- 76
2020-10-22 11:00:00 15.1 20 Sur 30 Sur 0 -- -- 76
2020-10-22 10:00:00 14.5 22 Sur 31 Sudoeste 0 -- -- 78
2020-10-22 09:00:00 14.1 17 Sudoeste 24 Sudoeste 0 -- -- 78
2020-10-22 08:00:00 14.1 16 Sur 26 Sur 0 -- -- 79
2020-10-22 07:00:00 14.5 15 Sudoeste 26 Sur 0 -- -- 76
2020-10-22 06:00:00 14.4 18 Sur 24 Sur 0 -- -- 79
2020-10-22 05:00:00 13.9 14 Sur 32 Sur 0 -- -- 79
2020-10-22 04:00:00 14.3 20 Sur 26 Sur 0 -- -- 78
2020-10-22 03:00:00 14.7 15 Sur 20 Sur 0 -- -- 73
2020-10-22 02:00:00 14.7 13 Sur 19 Sur 0 -- -- 70
2020-10-22 01:00:00 15.2 10 Sur 15 Sur 0 -- -- 69
2020-10-22 00:00:00 15.2 13 Sur 19 Sur 0 -- -- 68
2020-10-21 23:00:00 15.3 14 Sur 19 Sur 0 -- -- 68
2020-10-21 22:00:00 14.5 10 Sur 17 Sudoeste 0 -- -- 75
2020-10-21 21:00:00 14.6 10 Sur 15 Sudoeste 0 -- -- 76
2020-10-21 20:00:00 14.9 8 Sur 14 Sudoeste 0 -- -- 78
2020-10-21 19:00:00 15.1 9 Sudoeste 15 Sudoeste 0 -- -- 84
2020-10-21 18:00:00 16 12 Sudoeste 41 Sur 1.2 -- -- 78
2020-10-21 17:00:00 18.3 10 Sudeste 34 Sudeste 0 -- -- 63
2020-10-21 16:00:00 18.6 17 Sudeste 36 Sudeste 0 -- -- 60
2020-10-21 15:00:00 18.2 17 Sudeste 39 Sur 0 -- -- 58
2020-10-21 14:00:00 18.7 21 Sudeste 41 Sudeste 0 -- -- 56
2020-10-21 13:00:00 18.3 23 Sur 40 Sur 0 -- -- 61
2020-10-21 12:00:00 17.2 26 Sur 46 Sudeste 0 -- -- 66
2020-10-21 11:00:00 16.4 19 Sur 34 Sur 0 -- -- 73
2020-10-21 10:00:00 15.7 12 Sur 26 Sudoeste 0 -- -- 73
2020-10-21 09:00:00 15.7 17 Sudeste 31 Sudeste 0 -- -- 69
2020-10-21 08:00:00 15.3 14 Sudeste 32 Sudeste 0 -- -- 69
2020-10-21 07:00:00 15.9 18 Sudeste 52 Sudeste 0 -- -- 68
2020-10-21 06:00:00 16.3 19 Sur 57 Sudeste 0.2 -- -- 62
2020-10-21 05:00:00 15.3 34 Sudeste 57 Sudeste 0 -- -- 69
2020-10-21 04:00:00 15.9 30 Sur 72 Sudoeste 0 -- -- 67
2020-10-21 03:00:00 15.9 39 Sudeste 76 Sudeste 0.4 -- -- 65
2020-10-21 02:00:00 13.8 39 Sudeste 55 Sudeste 0.4 -- -- 78
2020-10-21 01:00:00 14.6 33 Sudeste 57 Sudeste 0.2 -- -- 74
2020-10-21 00:00:00 15.6 31 Sudeste 66 Sudeste 0 -- -- 66
2020-10-20 23:00:00 14.8 43 Sudeste 62 Sudeste 0 -- -- 67
2020-10-20 22:00:00 15.1 29 Sudeste 54 Sudeste 0 -- -- 62
2020-10-20 21:00:00 15.1 35 Sudeste 57 Sudeste 0 -- -- 65
2020-10-20 20:00:00 14.7 32 Sudeste 55 Sudeste 0.2 -- -- 73
2020-10-20 19:00:00 14.5 27 Sudeste 46 Sudeste 0 -- -- 76
2020-10-20 18:00:00 14.7 30 Sudeste 53 Sudeste 0 -- -- 78
2020-10-20 17:00:00 14.8 27 Sudeste 48 Sudeste 0 -- -- 80
2020-10-20 16:00:00 14 28 Sudeste 47 Sudeste 1.6 -- -- 86
2020-10-20 15:00:00 13.7 23 Sur 44 Sudeste 1.6 -- -- 87
2020-10-20 14:00:00 13.4 26 Sur 46 Sudeste 3.6 -- -- 88
2020-10-20 13:00:00 13.1 26 Sur 50 Sur 2.6 -- -- 89
2020-10-20 12:00:00 13.3 26 Sudeste 42 Sur 1.4 -- -- 86
2020-10-20 11:00:00 14 28 Sudeste 50 Sur 0.6 -- -- 81
2020-10-20 10:00:00 13.1 28 Sur 46 Sur 1.6 -- -- 84
2020-10-20 09:00:00 14 21 Sudeste 36 Sur 0.2 -- -- 75
2020-10-20 08:00:00 14.3 25 Sudeste 41 Sudeste 0 -- -- 68
2020-10-20 07:00:00 14.6 23 Sur 44 Sur 0 -- -- 63
2020-10-20 06:00:00 14.6 30 Sur 42 Sur 0 -- -- 60
2020-10-20 05:00:00 14.2 22 Sur 44 Sudeste 0 -- -- 60
2020-10-20 04:00:00 13.9 20 Sur 39 Sur 0 -- -- 62
2020-10-20 03:00:00 13.3 21 Sudoeste 36 Sur 0 -- -- 68
2020-10-20 02:00:00 13.3 27 Sur 39 Sur 0 -- -- 69
2020-10-20 01:00:00 12.7 29 Sur 38 Sur 0 -- -- 74
2020-10-20 00:00:00 13.1 26 Sur 45 Sur 0 -- -- 72
2020-10-19 23:00:00 13.4 33 Sur 46 Sur 0 -- -- 72
2020-10-19 22:00:00 14.1 27 Sur 39 Sur 0 -- -- 69
2020-10-19 21:00:00 14.4 27 Sur 44 Sur 0 -- -- 66
2020-10-19 20:00:00 15.3 28 Sur 40 Sur 0 -- -- 61
2020-10-19 19:00:00 16.7 20 Sur 34 Sur 0 -- -- 53
2020-10-19 18:00:00 18.1 20 Sur 37 Sur 0 -- -- 48
2020-10-19 17:00:00 18.5 28 Sur 44 Sur 0 -- -- 45
2020-10-19 16:00:00 18.3 32 Sur 45 Sur 0 -- -- 42
2020-10-19 15:00:00 19.2 26 Sur 42 Sudoeste 0 -- -- 42
2020-10-19 14:00:00 18.2 23 Sur 35 Sur 0 -- -- 52
2020-10-19 13:00:00 16.4 22 Sur 43 Sur 0 -- -- 52
2020-10-19 12:00:00 14.7 27 Sur 38 Sur 0 -- -- 51
2020-10-19 11:00:00 12.9 26 Sur 39 Sur 0 -- -- 57
2020-10-19 10:00:00 10.6 21 Sur 31 Sur 0 -- -- 62
2020-10-19 09:00:00 8.3 13 Sur 34 Sur 0 -- -- 69
2020-10-19 08:00:00 8.9 22 Sur 32 Sur 0 -- -- 66
2020-10-19 07:00:00 7.7 10 Sudeste 25 Sudeste 0 -- -- 72
2020-10-19 06:00:00 8.1 18 Sur 26 Sur 0 -- -- 71
2020-10-19 05:00:00 8.8 16 Sur 26 Sur 0 -- -- 68
2020-10-19 04:00:00 9.6 18 Sur 24 Sur 0 -- -- 65
2020-10-19 03:00:00 9.2 17 Sur 24 Sur 0 -- -- 68
2020-10-19 02:00:00 9 5 Sudeste 16 Sur 0 -- -- 68
2020-10-19 01:00:00 8.4 3 Sur 13 Sudeste 0 -- -- 69
2020-10-19 00:00:00 9.7 6 Sudeste 14 Sur 0 -- -- 65
2020-10-18 23:00:00 9.3 3 Nordeste 9 Nordeste 0 -- -- 67
2020-10-18 22:00:00 10 3 Noroeste 12 Sudeste 0 -- -- 65
2020-10-18 21:00:00 11.1 2 Sur 11 Sudoeste 0 -- -- 60
2020-10-18 20:00:00 12.4 7 Sudoeste 12 Sudoeste 0 -- -- 56
2020-10-18 19:00:00 14.2 7 Sudoeste 9 Sudoeste 0 -- -- 52
2020-10-18 18:00:00 16.6 2 Sur 9 Nordeste 0 -- -- 49
2020-10-18 17:00:00 18 3 Noroeste 9 Noroeste 0 -- -- 42
2020-10-18 16:00:00 17.9 3 Norte 10 Noroeste 0 -- -- 43
2020-10-18 15:00:00 16.8 4 Oeste 12 Noroeste 0 -- -- 45
2020-10-18 14:00:00 14.9 4 Norte 12 Noroeste 0 -- -- 50
2020-10-18 13:00:00 12.6 5 Norte 9 Norte 0 -- -- 62
2020-10-18 12:00:00 8.3 3 Este 8 Este 0 -- -- 78
2020-10-18 11:00:00 6.7 3 Nordeste 7 Nordeste 0 -- -- 84
2020-10-18 10:00:00 4.5 0 Calma 4 Noroeste 0 -- -- 89
2020-10-18 09:00:00 2.9 2 Norte 4 Noroeste 0 -- -- 92
2020-10-18 08:00:00 1.9 2 Noroeste 5 Este 0 -- -- 91
2020-10-18 07:00:00 2.9 2 Este 5 Oeste 0 -- -- 91
2020-10-18 06:00:00 3.4 0 Calma 3 Sudoeste 0 -- -- 89
2020-10-18 05:00:00 3.8 2 Noroeste 4 Oeste 0 -- -- 88
2020-10-18 04:00:00 4.2 0 Calma 5 Oeste 0 -- -- 87
2020-10-18 03:00:00 4.9 2 Noroeste 4 Oeste 0 -- -- 83
2020-10-18 02:00:00 5.6 0 Calma 6 Oeste 0 -- -- 81
2020-10-18 01:00:00 6.3 4 Norte 6 Norte 0 -- -- 77
2020-10-18 00:00:00 7 3 Sur 5 Sudoeste 0 -- -- 72
2020-10-17 23:00:00 8.2 3 Sudoeste 4 Oeste 0 -- -- 68
2020-10-17 22:00:00 8.6 3 Noroeste 5 Noroeste 0 -- -- 66
2020-10-17 21:00:00 9.7 2 Sudoeste 8 Sur 0 -- -- 61
2020-10-17 20:00:00 11 4 Noroeste 16 Oeste 0 -- -- 61
2020-10-17 19:00:00 12.7 14 Noroeste 22 Noroeste 0 -- -- 54
2020-10-17 18:00:00 15.1 17 Noroeste 28 Oeste 0 -- -- 47
2020-10-17 17:00:00 15.4 15 Noroeste 23 Noroeste 0 -- -- 44
2020-10-17 16:00:00 15.5 13 Noroeste 21 Noroeste 0 -- -- 47
2020-10-17 15:00:00 14.5 7 Norte 21 Noroeste 0 -- -- 50
2020-10-17 14:00:00 13.7 7 Nordeste 15 Norte 0 -- -- 52
2020-10-17 13:00:00 11.5 5 Nordeste 10 Nordeste 0 -- -- 61
2020-10-17 12:00:00 9 4 Sudeste 8 Este 0 -- -- 71
2020-10-17 11:00:00 5.6 3 Nordeste 5 Nordeste 0 -- -- 86
2020-10-17 10:00:00 3 0 Calma 3 Este 0 -- -- 94
2020-10-17 09:00:00 1 0 Calma 5 Oeste 0 -- -- 95
2020-10-17 08:00:00 1.2 3 Sur 5 Sur 0 -- -- 95
2020-10-17 07:00:00 1 3 Oeste 4 Oeste 0 -- -- 93
2020-10-17 06:00:00 1.6 0 Calma 3 Oeste 0 -- -- 91
2020-10-17 05:00:00 2.2 0 Calma 5 Norte 0 -- -- 91
2020-10-17 04:00:00 2 3 Oeste 6 Sudoeste 0 -- -- 92
2020-10-17 03:00:00 2.7 0 Calma 6 Sudoeste 0 -- -- 89
2020-10-17 02:00:00 3 2 Norte 6 Noroeste 0 -- -- 88
2020-10-17 01:00:00 3.9 0 Calma 5 Oeste 0 -- -- 84
2020-10-17 00:00:00 4.7 0 Calma 9 Sudoeste 0 -- -- 80
2020-10-16 23:00:00 5.9 6 Sudoeste 9 Sudoeste 0 -- -- 78
2020-10-16 22:00:00 6.2 7 Sudoeste 9 Sudoeste 0 -- -- 76
2020-10-16 21:00:00 6.9 4 Sudeste 9 Sudeste 0 -- -- 73
2020-10-16 20:00:00 8.1 8 Oeste 20 Noroeste 0 -- -- 68
2020-10-16 19:00:00 10.5 15 Noroeste 26 Oeste 0 -- -- 58
2020-10-16 18:00:00 13.8 18 Noroeste 28 Noroeste 0 -- -- 47
2020-10-16 17:00:00 14.5 8 Noroeste 18 Noroeste 0 -- -- 42
2020-10-16 16:00:00 14.4 4 Nordeste 15 Noroeste 0 -- -- 44
2020-10-16 15:00:00 13.6 6 Norte 15 Noroeste 0 -- -- 42
2020-10-16 14:00:00 12.3 7 Este 15 Este 0 -- -- 46
2020-10-16 13:00:00 11 5 Noroeste 13 Noroeste 0 -- -- 48
2020-10-16 12:00:00 9.6 6 Noroeste 13 Noroeste 0 -- -- 52
2020-10-16 11:00:00 7.7 5 Norte 12 Noroeste 0 -- -- 59
2020-10-16 10:00:00 6.5 2 Norte 6 Oeste 0 -- -- 61
2020-10-16 09:00:00 3.6 5 Oeste 10 Noroeste 0 -- -- 70
2020-10-16 08:00:00 3.2 5 Oeste 10 Sudoeste 0 -- -- 69
2020-10-16 07:00:00 3.6 5 Noroeste 15 Noroeste 0 -- -- 68
2020-10-16 06:00:00 4.6 16 Noroeste 23 Oeste 0 -- -- 65
2020-10-16 05:00:00 3.6 4 Sur 8 Sudeste 0 -- -- 74
2020-10-16 04:00:00 4 4 Nordeste 10 Noroeste 0 -- -- 71
2020-10-16 03:00:00 4.6 5 Noroeste 14 Norte 0 -- -- 69
2020-10-16 02:00:00 4.5 8 Norte 19 Noroeste 0 -- -- 71
2020-10-16 01:00:00 5 14 Oeste 24 Noroeste 0 -- -- 68
2020-10-16 00:00:00 5.4 15 Noroeste 31 Noroeste 0 -- -- 69
2020-10-15 23:00:00 6.1 20 Noroeste 33 Norte 0 -- -- 66
2020-10-15 22:00:00 6.1 18 Noroeste 36 Noroeste 0 -- -- 65
2020-10-15 21:00:00 6.6 23 Noroeste 38 Noroeste 0 -- -- 63
2020-10-15 20:00:00 6.9 24 Noroeste 40 Noroeste 0 -- -- 62
2020-10-15 19:00:00 8.1 30 Noroeste 46 Noroeste 0 -- -- 60
2020-10-15 18:00:00 10.1 31 Noroeste 47 Norte 0 -- -- 51
2020-10-15 17:00:00 11 37 Noroeste 53 Noroeste 0 -- -- 47
2020-10-15 16:00:00 11.3 37 Noroeste 51 Noroeste 0 -- -- 46
2020-10-15 15:00:00 11.2 31 Noroeste 50 Noroeste 0 -- -- 47
2020-10-15 14:00:00 10.8 36 Noroeste 48 Noroeste 0 -- -- 48
2020-10-15 13:00:00 10.4 25 Noroeste 45 Noroeste 0 -- -- 52
2020-10-15 12:00:00 9.6 23 Noroeste 35 Noroeste 0 -- -- 57
2020-10-15 11:00:00 8.2 22 Noroeste 38 Noroeste 0 -- -- 68
2020-10-15 10:00:00 7.1 27 Noroeste 39 Noroeste 0 -- -- 72
2020-10-15 09:00:00 6 23 Noroeste 33 Noroeste 0 -- -- 75
2020-10-15 08:00:00 5.6 23 Noroeste 34 Noroeste 0 -- -- 80
2020-10-15 07:00:00 5.7 21 Noroeste 31 Noroeste 0 -- -- 78
2020-10-15 06:00:00 5.6 23 Noroeste 30 Noroeste 0 -- -- 78
2020-10-15 05:00:00 5.2 16 Noroeste 28 Noroeste 0 -- -- 78
2020-10-15 04:00:00 5.6 21 Noroeste 30 Noroeste 0 -- -- 78
2020-10-15 03:00:00 5.8 23 Noroeste 36 Noroeste 0 -- -- 76
2020-10-15 02:00:00 5.6 21 Noroeste 34 Norte 0 -- -- 78
2020-10-15 01:00:00 5.5 25 Noroeste 37 Noroeste 0 -- -- 80
2020-10-15 00:00:00 5.7 19 Noroeste 36 Noroeste 0 -- -- 76
2020-10-14 23:00:00 6.1 24 Noroeste 36 Noroeste 0 -- -- 76
2020-10-14 22:00:00 6.2 23 Noroeste 39 Noroeste 0 -- -- 76
2020-10-14 21:00:00 6.2 21 Noroeste 40 Norte 0 -- -- 77
2020-10-14 20:00:00 6.3 19 Noroeste 41 Noroeste 0 -- -- 83
2020-10-14 19:00:00 7 23 Norte 40 Norte 0 -- -- 81
2020-10-14 18:00:00 7.8 23 Noroeste 38 Noroeste 0.2 -- -- 78
2020-10-14 17:00:00 6.3 22 Noroeste 43 Norte 1.4 -- -- 85
2020-10-14 16:00:00 9.2 26 Noroeste 42 Noroeste 0.2 -- -- 74
2020-10-14 15:00:00 7 21 Norte 40 Noroeste 0.6 -- -- 83
2020-10-14 14:00:00 8.9 30 Noroeste 44 Noroeste 0 -- -- 73
2020-10-14 13:00:00 8.7 17 Norte 30 Norte 0 -- -- 80
2020-10-14 12:00:00 7 15 Norte 31 Norte 1 -- -- 90
2020-10-14 11:00:00 8.4 17 Noroeste 29 Noroeste 0 -- -- 75
2020-10-14 10:00:00 8.3 19 Noroeste 30 Noroeste 0.2 -- -- 77
2020-10-14 09:00:00 6.3 10 Noroeste 19 Noroeste 0 -- -- 89
2020-10-14 08:00:00 7 11 Noroeste 20 Noroeste 0 -- -- 83
2020-10-14 07:00:00 7 6 Norte 22 Noroeste 0 -- -- 90
2020-10-14 06:00:00 7.2 20 Noroeste 26 Noroeste 0 -- -- 90
2020-10-14 05:00:00 7.7 9 Noroeste 13 Noroeste 0 -- -- 82
2020-10-14 04:00:00 7.5 4 Oeste 11 Norte 0 -- -- 82
2020-10-14 03:00:00 8 6 Noroeste 13 Norte 0 -- -- 79
2020-10-14 02:00:00 8 5 Noroeste 21 Norte 0 -- -- 78
2020-10-14 01:00:00 8.4 15 Noroeste 23 Noroeste 0 -- -- 78
2020-10-14 00:00:00 9.5 12 Norte 28 Norte 0 -- -- 75
2020-10-13 23:00:00 9.6 16 Norte 25 Noroeste 0 -- -- 73
2020-10-13 22:00:00 9.7 18 Noroeste 32 Norte 0 -- -- 73
2020-10-13 21:00:00 9.4 21 Noroeste 32 Norte 0 -- -- 75
2020-10-13 20:00:00 8.7 5 Noroeste 27 Noroeste 0 -- -- 77
2020-10-13 19:00:00 10.2 20 Norte 42 Norte 0 -- -- 71
2020-10-13 18:00:00 12.2 25 Noroeste 42 Noroeste 0 -- -- 61
2020-10-13 17:00:00 12.9 25 Norte 45 Noroeste 0 -- -- 63
2020-10-13 16:00:00 14.4 29 Noroeste 49 Noroeste 0 -- -- 54
2020-10-13 15:00:00 13.5 24 Noroeste 45 Noroeste 0 -- -- 65
2020-10-13 14:00:00 13.7 27 Noroeste 48 Noroeste 0 -- -- 63
2020-10-13 13:00:00 13.6 29 Noroeste 50 Norte 0 -- -- 65
2020-10-13 12:00:00 13.3 28 Noroeste 52 Noroeste 0 -- -- 68
2020-10-13 11:00:00 12.1 24 Noroeste 44 Norte 0 -- -- 77
2020-10-13 10:00:00 -- -- -- -- -- -- -- -- --
2020-10-13 09:00:00 9.8 14 Noroeste 28 Noroeste 0 -- -- 83
2020-10-13 08:00:00 9.8 18 Noroeste 31 Noroeste 0 -- -- 85
2020-10-13 07:00:00 8.7 12 Norte 17 Norte 0.2 -- -- 96
2020-10-13 06:00:00 7.2 7 Sudeste 10 Sudeste 0 -- -- 95
2020-10-13 05:00:00 7.9 4 Noroeste 8 Noroeste 0 -- -- 94
2020-10-13 04:00:00 8 0 Calma 6 Nordeste 0 -- -- 93
2020-10-13 03:00:00 7.9 3 Sudeste 8 Este 1.4 -- -- 90
2020-10-13 02:00:00 9.3 6 Este 10 Noroeste 0.2 -- -- 79
2020-10-13 01:00:00 -- -- -- -- -- -- -- -- --
2020-10-13 00:00:00 9.8 2 Este 11 Noroeste 0 -- -- 66
2020-10-12 23:00:00 8.9 5 Oeste 27 Noroeste 0 -- -- 65
2020-10-12 22:00:00 9.1 22 Noroeste 44 Noroeste 0 -- -- 68
2020-10-12 21:00:00 9.4 31 Noroeste 46 Noroeste 0 -- -- 67
2020-10-12 20:00:00 9.7 27 Noroeste 40 Noroeste 0 -- -- 64
2020-10-12 19:00:00 10.8 22 Noroeste 55 Noroeste 0 -- -- 61
2020-10-12 18:00:00 12.1 37 Noroeste 55 Noroeste 0 -- -- 52
2020-10-12 17:00:00 13 35 Noroeste 58 Norte 0 -- -- 50
2020-10-12 16:00:00 13.2 36 Noroeste 58 Noroeste 0 -- -- 48
2020-10-12 15:00:00 13.6 32 Noroeste 53 Noroeste 0 -- -- 50
2020-10-12 14:00:00 13.5 32 Noroeste 48 Noroeste 0 -- -- 46
2020-10-12 13:00:00 12.5 36 Noroeste 54 Noroeste 0 -- -- 44
2020-10-12 12:00:00 11.6 37 Noroeste 53 Norte 0 -- -- 51
2020-10-12 11:00:00 10.8 35 Noroeste 53 Norte 0 -- -- 55
2020-10-12 10:00:00 9.9 28 Noroeste 47 Noroeste 0 -- -- 60
2020-10-12 09:00:00 8.6 31 Noroeste 53 Noroeste 0 -- -- 67
2020-10-12 08:00:00 8.2 33 Noroeste 48 Noroeste 0 -- -- 71
2020-10-12 07:00:00 8 29 Noroeste 44 Noroeste 0 -- -- 72
2020-10-12 06:00:00 7.9 25 Noroeste 43 Noroeste 0 -- -- 71
2020-10-12 05:00:00 7.8 21 Noroeste 40 Noroeste 0 -- -- 73
2020-10-12 04:00:00 -- -- -- -- -- -- -- -- --
2020-10-12 03:00:00 8.1 26 Noroeste 48 Noroeste 0 -- -- 72
2020-10-12 02:00:00 8.1 32 Noroeste 47 Norte 0 -- -- 72
2020-10-12 01:00:00 8.3 32 Noroeste 50 Noroeste 0 -- -- 72
2020-10-12 00:00:00 8.5 34 Noroeste 51 Noroeste 0 -- -- 72
2020-10-11 23:00:00 8.4 33 Noroeste 51 Noroeste 0 -- -- 73
2020-10-11 22:00:00 8.5 25 Noroeste 41 Noroeste 0 -- -- 72
2020-10-11 21:00:00 -- -- -- -- -- -- -- -- --
2020-10-11 20:00:00 -- -- -- -- -- -- -- -- --
2020-10-11 19:00:00 9.2 27 Noroeste 49 Noroeste 0 -- -- 67
2020-10-11 18:00:00 10.1 31 Noroeste 51 Norte 0 -- -- 66
2020-10-11 17:00:00 10.6 30 Norte 53 Noroeste 0 -- -- 63
2020-10-11 16:00:00 11.1 34 Noroeste 59 Noroeste 0 -- -- 62
2020-10-11 15:00:00 11.6 42 Noroeste 61 Noroeste 0 -- -- 61
2020-10-11 14:00:00 12.3 37 Noroeste 58 Noroeste 0 -- -- 60
2020-10-11 13:00:00 11.8 32 Noroeste 54 Noroeste 0 -- -- 62
2020-10-11 12:00:00 10.9 34 Noroeste 48 Noroeste 0 -- -- 65
2020-10-11 11:00:00 10.3 34 Noroeste 56 Noroeste 0 -- -- 63
2020-10-11 10:00:00 8.7 32 Noroeste 50 Norte 0 -- -- 67
2020-10-11 09:00:00 7.4 35 Noroeste 51 Noroeste 0 -- -- 64
2020-10-11 08:00:00 7.1 33 Noroeste 50 Noroeste 0 -- -- 65
2020-10-11 07:00:00 7.2 30 Noroeste 49 Norte 0 -- -- 66
2020-10-11 06:00:00 7.5 37 Noroeste 53 Noroeste 0 -- -- 66
2020-10-11 05:00:00 7.6 27 Noroeste 45 Noroeste 0 -- -- 69
2020-10-11 04:00:00 8.1 32 Noroeste 50 Noroeste 0 -- -- 63
2020-10-11 03:00:00 8.7 30 Noroeste 48 Noroeste 0 -- -- 65
2020-10-11 02:00:00 9.3 30 Noroeste 45 Noroeste 0 -- -- 69
2020-10-11 01:00:00 9.5 27 Noroeste 45 Noroeste 0 -- -- 68
2020-10-11 00:00:00 10 33 Noroeste 51 Noroeste 0 -- -- 66
2020-10-10 23:00:00 10.1 24 Noroeste 48 Noroeste 0 -- -- 66
2020-10-10 22:00:00 10.7 36 Noroeste 54 Noroeste 0 -- -- 63
2020-10-10 21:00:00 10.9 29 Noroeste 46 Noroeste 0 -- -- 66
2020-10-10 20:00:00 11.1 29 Noroeste 51 Noroeste 0 -- -- 64
2020-10-10 19:00:00 12.5 40 Noroeste 54 Noroeste 0 -- -- 59
2020-10-10 18:00:00 14 36 Noroeste 55 Norte 0 -- -- 55
2020-10-10 17:00:00 15.6 32 Noroeste 50 Norte 0 -- -- 49
2020-10-10 16:00:00 15.9 31 Noroeste 54 Noroeste 0 -- -- 52
2020-10-10 15:00:00 15.9 35 Noroeste 51 Noroeste 0 -- -- 62
2020-10-10 14:00:00 16.1 28 Noroeste 42 Noroeste 0 -- -- 64
2020-10-10 13:00:00 16 28 Noroeste 41 Noroeste 0 -- -- 64
2020-10-10 12:00:00 16.5 6 Norte 12 Norte 0 -- -- 68
2020-10-10 11:00:00 14.4 5 Sudeste 9 Este 0 -- -- 73
2020-10-10 10:00:00 11.8 0 Calma 4 Este 0 -- -- 88
2020-10-10 09:00:00 9.6 2 Oeste 5 Sudoeste 0 -- -- 94
2020-10-10 08:00:00 9.1 3 Oeste 5 Sudoeste 0 -- -- 94
2020-10-10 07:00:00 10.1 2 Sur 4 Sur 0 -- -- 96
2020-10-10 06:00:00 10.1 0 Calma 5 Oeste 0 -- -- 95
2020-10-10 05:00:00 10.6 0 Calma 3 Oeste 0 -- -- 94
2020-10-10 04:00:00 10.7 2 Oeste 5 Noroeste 0 -- -- 94
2020-10-10 03:00:00 11.5 3 Oeste 4 Oeste 0 -- -- 91
2020-10-10 02:00:00 12.1 0 Calma 4 Sudeste 0 -- -- 91
2020-10-10 01:00:00 12.9 2 Noroeste 6 Sudoeste 0 -- -- 89
2020-10-10 00:00:00 13.4 5 Sudoeste 8 Sudoeste 0 -- -- 87
2020-10-09 23:00:00 13.9 4 Sudoeste 6 Sudoeste 0 -- -- 85
2020-10-09 22:00:00 15 3 Sudeste 6 Sudeste 0 -- -- 82
2020-10-09 21:00:00 16.3 4 Sur 8 Noroeste 0 -- -- 74
2020-10-09 20:00:00 17.4 6 Oeste 13 Oeste 0 -- -- 68
2020-10-09 19:00:00 20.7 11 Noroeste 18 Oeste 0 -- -- 55
2020-10-09 18:00:00 23.2 12 Noroeste 18 Noroeste 0 -- -- 47
2020-10-09 17:00:00 23.8 12 Noroeste 20 Noroeste 0 -- -- 47
2020-10-09 16:00:00 23.4 6 Noroeste 15 Noroeste 0 -- -- 52
2020-10-09 15:00:00 22.5 6 Noroeste 11 Noroeste 0 -- -- 55
2020-10-09 14:00:00 21.5 5 Noroeste 9 Noroeste 0 -- -- 60
2020-10-09 13:00:00 19.4 4 Noroeste 7 Noroeste 0 -- -- 67
2020-10-09 12:00:00 17 2 Noroeste 7 Norte 0 -- -- 75
2020-10-09 11:00:00 14.5 3 Norte 5 Nordeste 0 -- -- 84
2020-10-09 10:00:00 13.1 2 Este 5 Nordeste 0 -- -- 90
2020-10-09 09:00:00 10.4 3 Noroeste 4 Noroeste 0 -- -- 95
2020-10-09 08:00:00 10.7 2 Sudeste 4 Sudeste 0 -- -- 94
2020-10-09 07:00:00 10.9 2 Sudeste 4 Norte 0 -- -- 94
2020-10-09 06:00:00 10.5 3 Este 4 Nordeste 0 -- -- 93
2020-10-09 05:00:00 11.3 3 Nordeste 5 Sudoeste 0 -- -- 91
2020-10-09 04:00:00 11.5 2 Oeste 5 Oeste 0 -- -- 92
2020-10-09 03:00:00 12.3 0 Calma 5 Sudoeste 0 -- -- 90
2020-10-09 02:00:00 12.7 2 Nordeste 4 Sur 0 -- -- 86
2020-10-09 01:00:00 12.6 5 Oeste 10 Noroeste 0 -- -- 89
2020-10-09 00:00:00 13.9 2 Norte 8 Noroeste 0 -- -- 84
2020-10-08 23:00:00 15 0 Calma 6 Sudoeste 0 -- -- 80
2020-10-08 22:00:00 15.3 4 Noroeste 6 Noroeste 0 -- -- 79
2020-10-08 21:00:00 17 3 Noroeste 8 Sur 0 -- -- 73
2020-10-08 20:00:00 18.5 3 Norte 13 Sudoeste 0 -- -- 67
2020-10-08 19:00:00 19.4 9 Sudoeste 12 Sudoeste 0 -- -- 65
2020-10-08 18:00:00 21.4 10 Sur 19 Sur 0 -- -- 57
2020-10-08 17:00:00 22.4 12 Sur 18 Sur 0 -- -- 53
2020-10-08 16:00:00 23.8 8 Sur 15 Sur 0 -- -- 49
2020-10-08 15:00:00 23.1 8 Sur 18 Sudeste 0 -- -- 49
2020-10-08 14:00:00 22 11 Sur 22 Sur 0 -- -- 52
2020-10-08 13:00:00 20.2 13 Sudeste 23 Sur 0 -- -- 60
2020-10-08 12:00:00 17.4 10 Sur 18 Sur 0 -- -- 71
2020-10-08 11:00:00 13.3 2 Sur 6 Sudeste 0 -- -- 87
2020-10-08 10:00:00 10.9 0 Calma 5 Este 0 -- -- 91
2020-10-08 09:00:00 8.8 3 Noroeste 6 Norte 0 -- -- 96
2020-10-08 08:00:00 8.3 3 Norte 8 Este 0 -- -- 95
2020-10-08 07:00:00 8.3 3 Norte 5 Oeste 0 -- -- 93
2020-10-08 06:00:00 9.1 0 Calma 5 Norte 0 -- -- 94
2020-10-08 05:00:00 9.4 2 Norte 4 Sudoeste 0 -- -- 92
2020-10-08 04:00:00 9.6 2 Nordeste 6 Oeste 0 -- -- 89
2020-10-08 03:00:00 10.6 0 Calma 5 Sudoeste 0 -- -- 88
2020-10-08 02:00:00 10.8 4 Noroeste 8 Sudoeste 0 -- -- 87
2020-10-08 01:00:00 12.2 6 Sudoeste 9 Sudoeste 0 -- -- 83
2020-10-08 00:00:00 12.8 3 Sur 8 Noroeste 0 -- -- 80
2020-10-07 23:00:00 12.9 6 Oeste 14 Sudeste 0 -- -- 79
2020-10-07 22:00:00 14.2 10 Noroeste 30 Noroeste 0 -- -- 76
2020-10-07 21:00:00 14.8 26 Noroeste 41 Noroeste 0 -- -- 74
2020-10-07 20:00:00 15.1 27 Noroeste 41 Noroeste 0 -- -- 73
2020-10-07 19:00:00 15.5 31 Noroeste 47 Noroeste 0 -- -- 72
2020-10-07 18:00:00 16.9 27 Noroeste 45 Noroeste 0 -- -- 67
2020-10-07 17:00:00 17.6 26 Noroeste 42 Noroeste 0 -- -- 64
2020-10-07 16:00:00 18.3 26 Norte 41 Noroeste 0 -- -- 64
2020-10-07 15:00:00 19 27 Noroeste 46 Norte 0 -- -- 61
2020-10-07 14:00:00 18.2 31 Noroeste 44 Noroeste 0 -- -- 63
2020-10-07 13:00:00 17.8 25 Noroeste 52 Noroeste 0 -- -- 70
2020-10-07 12:00:00 17.5 31 Noroeste 49 Noroeste 0 -- -- 71
2020-10-07 11:00:00 17.9 27 Noroeste 39 Noroeste 0 -- -- 70
2020-10-07 10:00:00 16.8 24 Noroeste 32 Noroeste 0 -- -- 75
2020-10-07 09:00:00 14.7 14 Noroeste 22 Noroeste 0 -- -- 86
2020-10-07 08:00:00 14.9 11 Norte 28 Norte 0 -- -- 83
2020-10-07 07:00:00 15.3 16 Norte 27 Norte 0 -- -- 82
2020-10-07 06:00:00 15.2 13 Norte 25 Norte 0 -- -- 81
2020-10-07 05:00:00 15.5 13 Norte 33 Noroeste 0 -- -- 79
2020-10-07 04:00:00 15.4 23 Norte 32 Norte 0 -- -- 78
2020-10-07 03:00:00 15.1 8 Noroeste 13 Noroeste 0 -- -- 77
2020-10-07 02:00:00 15 3 Norte 10 Oeste 0 -- -- 79
2020-10-07 01:00:00 15.1 0 Calma 17 Noroeste 0 -- -- 80
2020-10-07 00:00:00 15.5 11 Noroeste 17 Noroeste 0 -- -- 79
2020-10-06 23:00:00 15.2 4 Oeste 16 Noroeste 0 -- -- 81
2020-10-06 22:00:00 15.1 10 Noroeste 14 Noroeste 0 -- -- 82
2020-10-06 21:00:00 15.3 9 Noroeste 29 Noroeste 0 -- -- 79
2020-10-06 20:00:00 16.2 18 Noroeste 31 Noroeste 0 -- -- 77
2020-10-06 19:00:00 17 13 Norte 29 Norte 0 -- -- 76
2020-10-06 18:00:00 17.2 12 Norte 22 Norte 0 -- -- 78
2020-10-06 17:00:00 18.9 10 Noroeste 15 Noroeste 0 -- -- 70
2020-10-06 16:00:00 17 4 Norte 12 Nordeste 0 -- -- 74
2020-10-06 15:00:00 16.6 5 Nordeste 12 Este 0 -- -- 73
2020-10-06 14:00:00 15.3 7 Nordeste 13 Este 0 -- -- 76
2020-10-06 13:00:00 14.7 6 Nordeste 10 Este 0 -- -- 76
2020-10-06 12:00:00 12.9 0 Calma 7 Sur 0 -- -- 77
2020-10-06 11:00:00 11.3 4 Nordeste 8 Sudeste 0 -- -- 81
2020-10-06 10:00:00 10.1 3 Nordeste 4 Nordeste 0 -- -- 89
2020-10-06 09:00:00 9.2 0 Calma 6 Noroeste 0 -- -- 91
2020-10-06 08:00:00 8.7 4 Oeste 9 Sur 0 -- -- 92
2020-10-06 07:00:00 8.5 0 Calma 11 Noroeste 0 -- -- 90
2020-10-06 06:00:00 7.9 3 Sudeste 8 Sudeste 0 -- -- 91
2020-10-06 05:00:00 8.1 0 Calma 11 Sudoeste 0 -- -- 89
2020-10-06 04:00:00 7.3 2 Sudoeste 6 Este 0 -- -- 92
2020-10-06 03:00:00 6.7 2 Este 6 Oeste 0 -- -- 92
2020-10-06 02:00:00 6.6 0 Calma 5 Oeste 0 -- -- 89
2020-10-06 01:00:00 6.9 0 Calma 4 Noroeste 0 -- -- 88
2020-10-06 00:00:00 7.3 3 Oeste 5 Noroeste 0 -- -- 84
2020-10-05 23:00:00 7.6 3 Oeste 9 Oeste 0 -- -- 86
2020-10-05 22:00:00 9.6 6 Sudoeste 10 Sudoeste 0 -- -- 76
2020-10-05 21:00:00 9.7 6 Sudoeste 10 Sudoeste 0 -- -- 78
2020-10-05 20:00:00 11 2 Oeste 10 Norte 0 -- -- 74
2020-10-05 19:00:00 13.2 8 Norte 17 Norte 0 -- -- 64
2020-10-05 18:00:00 13.2 13 Norte 23 Norte 0 -- -- 65
2020-10-05 17:00:00 13.7 11 Norte 21 Norte 0 -- -- 65
2020-10-05 16:00:00 12.8 15 Noroeste 22 Norte 0 -- -- 69
2020-10-05 15:00:00 11.9 10 Nordeste 23 Norte 0 -- -- 74
2020-10-05 14:00:00 11.3 7 Norte 14 Norte 0 -- -- 76
2020-10-05 13:00:00 10.1 5 Norte 15 Nordeste 0 -- -- 82
2020-10-05 12:00:00 9.7 8 Norte 16 Noroeste 0 -- -- 82
2020-10-05 11:00:00 8.8 2 Este 5 Este 0 -- -- 84
2020-10-05 10:00:00 8.1 0 Calma 7 Sudoeste 0 -- -- 86
2020-10-05 09:00:00 7.3 2 Oeste 6 Sudoeste 0 -- -- 92
2020-10-05 08:00:00 7 0 Calma 6 Sudoeste 0 -- -- 91
2020-10-05 07:00:00 6.8 2 Sudeste 6 Noroeste 0 -- -- 93
2020-10-05 06:00:00 7.1 3 Norte 6 Noroeste 0 -- -- 91
2020-10-05 05:00:00 6.7 3 Sur 6 Nordeste 0 -- -- 92
2020-10-05 04:00:00 6.5 0 Calma 6 Norte 0 -- -- 93
2020-10-05 03:00:00 7 0 Calma 6 Noroeste 0 -- -- 87
2020-10-05 02:00:00 6.6 3 Oeste 5 Noroeste 0 -- -- 89
2020-10-05 01:00:00 7.2 2 Oeste 7 Sudoeste 0 -- -- 85
2020-10-05 00:00:00 7.2 4 Sudoeste 8 Sudoeste 0 -- -- 81
2020-10-04 23:00:00 7.7 3 Este 10 Oeste 0 -- -- 80
2020-10-04 22:00:00 7.5 5 Oeste 13 Norte 0 -- -- 84
2020-10-04 21:00:00 8.5 4 Norte 7 Noroeste 0 -- -- 80
2020-10-04 20:00:00 8.9 6 Noroeste 21 Noroeste 0 -- -- 81
2020-10-04 19:00:00 11 8 Noroeste 28 Noroeste 0 -- -- 81
2020-10-04 18:00:00 10.6 21 Noroeste 37 Noroeste 0.2 -- -- 77
2020-10-04 17:00:00 10.5 4 Nordeste 13 Noroeste 1 -- -- 90
2020-10-04 16:00:00 10.2 8 Norte 13 Norte 0.6 -- -- 86
2020-10-04 15:00:00 9.9 4 Norte 17 Nordeste 0.6 -- -- 87
2020-10-04 14:00:00 10.7 4 Nordeste 18 Este 0 -- -- 83
2020-10-04 13:00:00 9.6 11 Este 14 Este 0.6 -- -- 91
2020-10-04 12:00:00 8.5 4 Sur 8 Sudoeste 0.6 -- -- 93
2020-10-04 11:00:00 8 4 Este 9 Sudeste 1 -- -- 95
2020-10-04 10:00:00 7.5 3 Norte 9 Oeste 2.2 -- -- 92
2020-10-04 09:00:00 7.9 3 Sur 23 Sur 0 -- -- 85
2020-10-04 08:00:00 7.3 9 Sudeste 22 Sur 0 -- -- 88
2020-10-04 07:00:00 7.5 21 Sur 28 Sur 0 -- -- 88
2020-10-04 06:00:00 7.4 4 Sur 15 Sur 0 -- -- 91
2020-10-04 05:00:00 7.1 2 Norte 4 Oeste 0 -- -- 95
2020-10-04 04:00:00 7.1 2 Nordeste 8 Noroeste 0 -- -- 95
2020-10-04 03:00:00 7.1 3 Noroeste 6 Oeste 0 -- -- 95
2020-10-04 02:00:00 7.3 3 Noroeste 10 Sudoeste 0 -- -- 94
2020-10-04 01:00:00 8.2 5 Sudoeste 9 Sur 0 -- -- 86
2020-10-04 00:00:00 8.1 5 Sudoeste 9 Sudoeste 0 -- -- 90
2020-10-03 23:00:00 8.1 6 Sudoeste 10 Noroeste 0.2 -- -- 93
2020-10-03 22:00:00 8.3 3 Oeste 8 Norte 0 -- -- 93
2020-10-03 21:00:00 8.6 4 Oeste 6 Norte 0.2 -- -- 89
2020-10-03 20:00:00 8.7 2 Oeste 6 Sudoeste 0 -- -- 87
2020-10-03 19:00:00 9 2 Sudeste 8 Este 0 -- -- 86
2020-10-03 18:00:00 9.5 8 Este 17 Este 0 -- -- 84
2020-10-03 17:00:00 8.3 9 Este 14 Este 0 -- -- 92
2020-10-03 16:00:00 7.4 5 Nordeste 13 Este 0.2 -- -- 92
2020-10-03 15:00:00 6.4 5 Este 15 Este 0.8 -- -- 94
2020-10-03 14:00:00 5.8 8 Este 17 Este 1.2 -- -- 94
2020-10-03 13:00:00 5.6 10 Nordeste 21 Noroeste 1.2 -- -- 92
2020-10-03 12:00:00 5.5 14 Noroeste 41 Noroeste 1.2 -- -- 90
2020-10-03 11:00:00 5.7 31 Noroeste 46 Oeste 0.8 -- -- 87
2020-10-03 10:00:00 5.9 11 Norte 36 Noroeste 0 -- -- 88
2020-10-03 09:00:00 5.7 26 Noroeste 39 Noroeste 0.8 -- -- 86
2020-10-03 08:00:00 6.2 11 Noroeste 22 Noroeste 0.2 -- -- 89
2020-10-03 07:00:00 6 3 Norte 17 Nordeste 0 -- -- 91
2020-10-03 06:00:00 5.8 4 Este 10 Este 0 -- -- 92
2020-10-03 05:00:00 5.8 8 Este 12 Este 0.2 -- -- 92
2020-10-03 04:00:00 5.6 2 Sur 12 Sudeste 0 -- -- 92
2020-10-03 03:00:00 5.8 3 Nordeste 6 Nordeste 0 -- -- 91
2020-10-03 02:00:00 5.6 2 Este 12 Noroeste 0.2 -- -- 88
2020-10-03 01:00:00 5.9 4 Norte 13 Noroeste 0.8 -- -- 85
2020-10-03 00:00:00 5.8 7 Sudoeste 10 Sudoeste 0 -- -- 82
2020-10-02 23:00:00 4.5 6 Oeste 9 Oeste 0 -- -- 83
2020-10-02 22:00:00 5.5 0 Calma 16 Noroeste 0 -- -- 80
2020-10-02 21:00:00 6.5 13 Noroeste 23 Noroeste 0 -- -- 76
2020-10-02 20:00:00 7.5 11 Noroeste 38 Noroeste 0 -- -- 72
2020-10-02 19:00:00 8.7 33 Noroeste 50 Noroeste 0 -- -- 66
2020-10-02 18:00:00 10.1 35 Noroeste 51 Noroeste 0 -- -- 63
2020-10-02 17:00:00 9 22 Noroeste 61 Noroeste 0.2 -- -- 74
2020-10-02 16:00:00 10.9 35 Noroeste 49 Noroeste 0 -- -- 63
2020-10-02 15:00:00 10.4 24 Noroeste 38 Noroeste 0 -- -- 70
2020-10-02 14:00:00 8.7 22 Noroeste 38 Noroeste 0 -- -- 82
2020-10-02 13:00:00 7.5 9 Norte 33 Noroeste 1.8 -- -- 91
2020-10-02 12:00:00 7.8 16 Noroeste 36 Noroeste 1 -- -- 91
2020-10-02 11:00:00 8.3 31 Noroeste 43 Noroeste 2.6 -- -- 88
2020-10-02 10:00:00 10.1 4 Nordeste 20 Noroeste 2.8 -- -- 94
2020-10-02 09:00:00 10.4 18 Noroeste 44 Sudoeste 3.4 -- -- 93
2020-10-02 08:00:00 11.1 28 Sur 46 Sur 3 -- -- 91
2020-10-02 07:00:00 11.1 30 Sur 52 Sudoeste 1.6 -- -- 90
2020-10-02 06:00:00 11.5 26 Sur 42 Sur 0.4 -- -- 85
2020-10-02 05:00:00 11.8 28 Sur 45 Sur 0.2 -- -- 82
2020-10-02 04:00:00 12.1 24 Sur 39 Sur 1.6 -- -- 83
2020-10-02 03:00:00 12.9 17 Sur 34 Sur 0.8 -- -- 79
2020-10-02 02:00:00 14.6 19 Sur 35 Sur 0 -- -- 68
2020-10-02 01:00:00 15.1 19 Sur 35 Sudoeste 0 -- -- 62
2020-10-02 00:00:00 13.9 13 Sur 26 Sur 0 -- -- 68
2020-10-01 23:00:00 13.9 14 Sur 24 Sur 0 -- -- 69
2020-10-01 22:00:00 14.6 13 Sur 19 Sur 0 -- -- 66
2020-10-01 21:00:00 14.4 8 Sur 13 Sur 0 -- -- 67
2020-10-01 20:00:00 14.8 3 Sudoeste 13 Sur 0 -- -- 67
2020-10-01 19:00:00 17.2 4 Nordeste 8 Nordeste 0 -- -- 56
2020-10-01 18:00:00 17.9 4 Noroeste 16 Norte 0 -- -- 54
2020-10-01 17:00:00 18.1 5 Norte 18 Norte 0 -- -- 54
2020-10-01 16:00:00 18 8 Norte 22 Norte 0 -- -- 56
2020-10-01 15:00:00 17.9 12 Norte 22 Norte 0 -- -- 56
2020-10-01 14:00:00 17.8 16 Noroeste 27 Noroeste 0 -- -- 58
2020-10-01 13:00:00 17.2 20 Noroeste 31 Norte 0 -- -- 62
2020-10-01 12:00:00 17.5 11 Norte 18 Norte 0 -- -- 58
2020-10-01 11:00:00 15.1 5 Este 9 Este 0 -- -- 61
2020-10-01 10:00:00 11.5 5 Noroeste 8 Noroeste 0 -- -- 78
2020-10-01 09:00:00 10.4 7 Sur 9 Noroeste 0 -- -- 77
2020-10-01 08:00:00 9.9 4 Noroeste 6 Noroeste 0 -- -- 77
2020-10-01 07:00:00 11.1 3 Noroeste 14 Sudeste 0 -- -- 70
2020-10-01 06:00:00 12.8 9 Sudeste 18 Sur 0 -- -- 62
2020-10-01 05:00:00 11.3 4 Sudeste 18 Sur 0 -- -- 67
2020-10-01 04:00:00 13.8 11 Sur 19 Sur 0 -- -- 57
2020-10-01 03:00:00 14.3 9 Sudeste 22 Sudeste 0 -- -- 55
2020-10-01 02:00:00 14.9 10 Sudeste 25 Sur 0 -- -- 53
2020-10-01 01:00:00 16 9 Sur 26 Sudeste 0 -- -- 50
2020-10-01 00:00:00 15.5 6 Este 16 Sudeste 0 -- -- 51
2020-09-30 23:00:00 15.6 2 Sudoeste 8 Sudoeste 0 -- -- 52
2020-09-30 22:00:00 17.6 0 Calma 12 Sudoeste 0 -- -- 43
2020-09-30 21:00:00 18.3 3 Sur 16 Sur 0 -- -- 42
2020-09-30 20:00:00 18 9 Sudoeste 14 Sudoeste 0 -- -- 46
2020-09-30 19:00:00 21.7 5 Sudoeste 9 Este 0 -- -- 44
2020-09-30 18:00:00 23.4 4 Nordeste 13 Nordeste 0 -- -- 36
2020-09-30 17:00:00 24 6 Norte 15 Nordeste 0 -- -- 35
2020-09-30 16:00:00 23.9 9 Norte 17 Norte 0 -- -- 37
2020-09-30 15:00:00 22.6 5 Nordeste 9 Noroeste 0 -- -- 39
2020-09-30 14:00:00 21.2 5 Norte 10 Noroeste 0 -- -- 44
2020-09-30 13:00:00 19.1 4 Nordeste 8 Noroeste 0 -- -- 51
2020-09-30 12:00:00 16 4 Noroeste 8 Noroeste 0 -- -- 66
2020-09-30 11:00:00 13.3 3 Norte 7 Este 0 -- -- 70
2020-09-30 10:00:00 10.4 2 Norte 4 Nordeste 0 -- -- 82
2020-09-30 09:00:00 8.1 0 Calma 3 Oeste 0 -- -- 88
2020-09-30 08:00:00 7.3 0 Calma 4 Oeste 0 -- -- 89
2020-09-30 07:00:00 7.6 0 Calma 5 Sudoeste 0 -- -- 89
2020-09-30 06:00:00 8 0 Calma 4 Noroeste 0 -- -- 87
2020-09-30 05:00:00 8.2 0 Calma 5 Oeste 0 -- -- 86
2020-09-30 04:00:00 9.3 3 Este 4 Noroeste 0 -- -- 82
2020-09-30 03:00:00 9.7 4 Noroeste 5 Noroeste 0 -- -- 81
2020-09-30 02:00:00 10.5 0 Calma 4 Oeste 0 -- -- 77
2020-09-30 01:00:00 10.9 3 Nordeste 4 Nordeste 0 -- -- 77
2020-09-30 00:00:00 11.7 3 Noroeste 4 Noroeste 0 -- -- 74